< < Back
Terminal Aerodrome Forecast


Current Version              Previous Versions:   1  2  3  4  5  6  7  8  9  

Terminal Aerodrome Forecast

980
FTUS42 KGSP 251121
TAFGSP
TAF
KGSP 251121Z 2512/2612 35003KT P6SM SKC
     FM251800 24005KT P6SM SKC
     FM260700 30003KT P6SM SKC=

Latest METAR

509
SAUS70 KWBC 260500 RRE
MTRGSP
METAR KGSP 260453Z AUTO 29004KT 10SM CLR 12/09 A2994 RMK AO2 SLP132
T01220089 402390078


USA.gov is the U.S. government's official web portal to all federal, state and local government web resources and services.